| time (UTC) | temp C | wind direction | speed KPH | gust KPH | rain 1hr cm | rain 24hr cm | rain mn cm | humidity % | barometer mb |
| 20260507133926 | 27 | 100 | 17.7 | 0.0 | 0.00 | 0.00 | 0.00 | 69 | 1012.0 |
| 20260507132925 | 26 | 100 | 17.7 | 0.0 | 0.00 | 0.00 | 0.00 | 70 | 1012.0 |
| 20260507131924 | 26 | 140 | 8.0 | 0.0 | 0.00 | 0.00 | 0.00 | 73 | 1012.0 |
| 20260507130924 | 25 | 140 | 8.0 | 0.0 | 0.00 | 0.00 | 0.00 | 73 | 1012.0 |
| 20260507125921 | 25 | 140 | 8.0 | 0.0 | 0.00 | 0.00 | 0.00 | 73 | 1012.0 |
| 20260507124921 | 25 | 140 | 8.0 | 0.0 | 0.00 | 0.00 | 0.00 | 73 | 1012.0 |
| 20260507123920 | 25 | 140 | 8.0 | 0.0 | 0.00 | 0.00 | 0.00 | 72 | 1012.0 |
| 20260507122920 | 25 | 140 | 8.0 | 0.0 | 0.00 | 0.00 | 0.00 | 72 | 1012.0 |
| 20260507121919 | 25 | 140 | 8.0 | 0.0 | 0.00 | 0.00 | 0.00 | 72 | 1012.0 |
| 20260507120919 | 25 | 140 | 8.0 | 0.0 | 0.00 | 0.00 | 0.00 | 72 | 1012.0 |
| 20260507115918 | 25 | 140 | 8.0 | 0.0 | 0.00 | 0.00 | 0.00 | 72 | 1012.0 |
| 20260507114918 | 25 | 140 | 8.0 | 0.0 | 0.00 | 0.00 | 0.00 | 70 | 1012.0 |
| 20260507113917 | 25 | 140 | 8.0 | 0.0 | 0.00 | 0.00 | 0.00 | 67 | 1011.0 |
| 20260507112917 | 25 | 140 | 8.0 | 0.0 | 0.00 | 0.00 | 0.00 | 67 | 1011.0 |
| 20260507111916 | 25 | 140 | 8.0 | 0.0 | 0.00 | 0.00 | 0.00 | 63 | 1011.0 |
| 20260507110915 | 25 | 140 | 8.0 | 0.0 | 0.00 | 0.00 | 0.00 | 63 | 1011.0 |
| 20260507105915 | 25 | 140 | 9.7 | 0.0 | 0.00 | 0.00 | 0.00 | 63 | 1011.0 |
| 20260507104915 | 25 | 140 | 9.7 | 0.0 | 0.00 | 0.00 | 0.00 | 63 | 1011.0 |
| 20260507103914 | 25 | 140 | 8.0 | 0.0 | 0.00 | 0.00 | 0.00 | 63 | 1011.0 |
| 20260507102914 | 25 | 140 | 9.7 | 0.0 | 0.00 | 0.00 | 0.00 | 63 | 1011.0 |
| 20260507101913 | 25 | 82 | 8.0 | 24.1 | 0.00 | 0.00 | 0.00 | 63 | 1011.0 |
| 20260507100913 | 25 | 82 | 8.0 | 24.1 | 0.00 | 0.00 | 0.00 | 63 | 1011.0 |
| 20260507095912 | 25 | 82 | 8.0 | 24.1 | 0.00 | 0.00 | 0.00 | 63 | 1011.0 |
| 20260507094912 | 25 | 82 | 8.0 | 24.1 | 0.00 | 0.00 | 0.00 | 63 | 1011.0 |
| 20260507093911 | 25 | 82 | 9.7 | 25.7 | 0.00 | 0.00 | 0.00 | 63 | 1011.0 |
| 20260507092903 | 27 | 76 | 8.0 | 22.5 | 0.00 | 0.00 | 0.00 | 63 | 1011.0 |
| 20260507091853 | 27 | 76 | 8.0 | 22.5 | 0.00 | 0.00 | 0.00 | 63 | 1011.0 |
| 20260507085848 | 26 | 76 | 8.0 | 22.5 | 0.00 | 0.00 | 0.00 | 63 | 1011.0 |
| 20260507084848 | 26 | 76 | 8.0 | 22.5 | 0.00 | 0.00 | 0.00 | 63 | 1011.0 |
| 20260507081827 | 26 | 76 | 8.0 | 22.5 | 0.00 | 0.00 | 0.00 | 63 | 1011.0 |
| 20260507080824 | 26 | 76 | 8.0 | 22.5 | 0.00 | 0.00 | 0.00 | 63 | 1011.0 |
| 20260507075821 | 25 | 76 | 8.0 | 22.5 | 0.00 | 0.00 | 0.00 | 63 | 1011.0 |
| 20260507074815 | 25 | 76 | 8.0 | 22.5 | 0.00 | 0.00 | 0.00 | 63 | 1011.0 |
| 20260507073814 | 25 | 76 | 9.7 | 22.5 | 0.00 | 0.00 | 0.00 | 63 | 1011.0 |
| 20260507065751 | 27 | 130 | 12.9 | 0.0 | 0.00 | 0.00 | 0.00 | 63 | 1012.0 |
| 20260507064750 | 28 | 130 | 12.9 | 0.0 | 0.00 | 0.00 | 0.00 | 63 | 1012.0 |
| 20260507063748 | 28 | 130 | 12.9 | 0.0 | 0.00 | 0.00 | 0.00 | 63 | 1012.0 |
| 20260507062747 | 28 | 130 | 12.9 | 0.0 | 0.00 | 0.00 | 0.00 | 63 | 1012.0 |
| 20260507061730 | 29 | 130 | 12.9 | 0.0 | 0.00 | 0.00 | 0.00 | 63 | 1012.0 |
| 20260507060729 | 30 | 130 | 12.9 | 0.0 | 0.00 | 0.00 | 0.00 | 63 | 1012.0 |
| 20260507055720 | 29 | 130 | 14.5 | 0.0 | 0.00 | 0.00 | 0.00 | 63 | 1012.0 |
| 20260507054720 | 29 | 130 | 14.5 | 0.0 | 0.00 | 0.00 | 0.00 | 63 | 1012.0 |
| 20260507053719 | 29 | 117 | 11.3 | 24.1 | 0.00 | 0.00 | 0.00 | 63 | 1012.0 |
| 20260507052718 | 28 | 117 | 11.3 | 25.7 | 0.00 | 0.00 | 0.00 | 63 | 1012.0 |
| 20260507051718 | 30 | 130 | 17.7 | 0.0 | 0.00 | 0.00 | 0.00 | 62 | 1012.0 |
| 20260507050717 | 30 | 130 | 17.7 | 0.0 | 0.00 | 0.00 | 0.00 | 62 | 1012.0 |
| 20260507045717 | 30 | 130 | 17.7 | 0.0 | 0.00 | 0.00 | 0.00 | 62 | 1012.0 |
| 20260507044716 | 30 | 130 | 17.7 | 0.0 | 0.00 | 0.00 | 0.00 | 62 | 1012.0 |
| 20260507043715 | 31 | 96 | 20.9 | 37.0 | 0.00 | 0.00 | 0.00 | 57 | 1012.0 |
| 20260507042715 | 31 | 96 | 20.9 | 37.0 | 0.00 | 0.00 | 0.00 | 56 | 1012.0 |
| 20260507041714 | 31 | 96 | 20.9 | 37.0 | 0.00 | 0.00 | 0.00 | 55 | 1012.0 |
| 20260507040714 | 31 | 96 | 20.9 | 37.0 | 0.00 | 0.00 | 0.00 | 55 | 1012.0 |
| 20260507035714 | 31 | 96 | 20.9 | 37.0 | 0.00 | 0.00 | 0.00 | 55 | 1012.0 |
| 20260507034713 | 31 | 96 | 20.9 | 37.0 | 0.00 | 0.00 | 0.00 | 52 | 1012.0 |
| 20260507033712 | 31 | 96 | 20.9 | 37.0 | 0.00 | 0.00 | 0.00 | 52 | 1012.0 |
| 20260507031712 | 31 | 96 | 20.9 | 37.0 | 0.00 | 0.00 | 0.00 | 51 | 1012.0 |
| 20260507030711 | 31 | 96 | 20.9 | 37.0 | 0.00 | 0.00 | 0.00 | 50 | 1012.0 |
| 20260507025711 | 31 | 96 | 20.9 | 37.0 | 0.00 | 0.00 | 0.00 | 50 | 1012.0 |
| 20260507024710 | 31 | 96 | 20.9 | 37.0 | 0.00 | 0.00 | 0.00 | 47 | 1012.0 |
| 20260507023710 | 31 | 96 | 20.9 | 37.0 | 0.00 | 0.00 | 0.00 | 47 | 1012.0 |
| 20260507021659 | 31 | 96 | 20.9 | 37.0 | 0.00 | 0.00 | 0.00 | 46 | 1011.0 |
| 20260507015646 | 31 | 96 | 20.9 | 37.0 | 0.00 | 0.00 | 0.00 | 46 | 1011.0 |
| 20260507014646 | 31 | 96 | 20.9 | 37.0 | 0.00 | 0.00 | 0.00 | 46 | 1010.0 |
| 20260507013645 | 31 | 96 | 20.9 | 37.0 | 0.00 | 0.00 | 0.00 | 46 | 1010.0 |
| 20260507012645 | 31 | 96 | 20.9 | 37.0 | 0.00 | 0.00 | 0.00 | 46 | 1010.0 |
| 20260507011644 | 31 | 96 | 20.9 | 37.0 | 0.00 | 0.00 | 0.00 | 46 | 1010.0 |
| 20260507010635 | 31 | 96 | 20.9 | 37.0 | 0.00 | 0.00 | 0.00 | 46 | 1010.0 |
| 20260507005634 | 31 | 96 | 20.9 | 37.0 | 0.00 | 0.00 | 0.00 | 46 | 1010.0 |
| 20260507004634 | 30 | 96 | 20.9 | 37.0 | 0.00 | 0.00 | 0.00 | 46 | 1009.0 |
| 20260507003633 | 30 | 96 | 20.9 | 37.0 | 0.00 | 0.00 | 0.00 | 46 | 1009.0 |
| 20260507002633 | 30 | 96 | 20.9 | 37.0 | 0.00 | 0.00 | 0.00 | 46 | 1009.0 |
| 20260507001632 | 29 | 96 | 20.9 | 37.0 | 0.00 | 0.00 | 0.00 | 46 | 1009.0 |
| 20260507000632 | 29 | 96 | 20.9 | 37.0 | 0.00 | 0.00 | 0.00 | 46 | 1009.0 |
| 20260506235631 | 29 | 96 | 20.9 | 37.0 | 0.00 | 0.00 | 0.00 | 46 | 1009.0 |
| 20260506234631 | 36 | 90 | 24.1 | 0.0 | 0.00 | 0.00 | 0.00 | 37 | 1009.0 |
| 20260506233630 | 36 | 90 | 24.1 | 0.0 | 0.00 | 0.00 | 0.00 | 37 | 1009.0 |
| 20260506232630 | 35 | 90 | 24.1 | 0.0 | 0.00 | 0.00 | 0.00 | 37 | 1008.0 |
| 20260506231628 | 35 | 90 | 24.1 | 0.0 | 0.00 | 0.00 | 0.00 | 37 | 1008.0 |
| 20260506230623 | 35 | 90 | 24.1 | 0.0 | 0.00 | 0.00 | 0.00 | 37 | 1008.0 |
| 20260506225622 | 35 | 90 | 24.1 | 0.0 | 0.00 | 0.00 | 0.00 | 37 | 1008.0 |
| 20260506224622 | 35 | 90 | 24.1 | 0.0 | 0.00 | 0.00 | 0.00 | 37 | 1008.0 |
| 20260506223621 | 35 | 90 | 24.1 | 0.0 | 0.00 | 0.00 | 0.00 | 37 | 1008.0 |
| 20260506222620 | 35 | 90 | 24.1 | 0.0 | 0.00 | 0.00 | 0.00 | 37 | 1008.0 |
| 20260506221620 | 35 | 90 | 24.1 | 0.0 | 0.00 | 0.00 | 0.00 | 37 | 1008.0 |
| 20260506220619 | 35 | 90 | 24.1 | 0.0 | 0.00 | 0.00 | 0.00 | 37 | 1008.0 |
| 20260506215619 | 35 | 90 | 24.1 | 0.0 | 0.00 | 0.00 | 0.00 | 37 | 1008.0 |
| 20260506214618 | 35 | 90 | 24.1 | 0.0 | 0.00 | 0.00 | 0.00 | 37 | 1008.0 |
| 20260506212617 | 35 | 90 | 24.1 | 0.0 | 0.00 | 0.00 | 0.00 | 37 | 1008.0 |
| 20260506211617 | 35 | 90 | 24.1 | 0.0 | 0.00 | 0.00 | 0.00 | 37 | 1008.0 |
| 20260506210616 | 35 | 90 | 24.1 | 0.0 | 0.00 | 0.00 | 0.00 | 38 | 1008.0 |
| 20260506205616 | 35 | 90 | 24.1 | 0.0 | 0.00 | 0.00 | 0.00 | 38 | 1008.0 |
| 20260506204616 | 35 | 90 | 24.1 | 0.0 | 0.00 | 0.00 | 0.00 | 38 | 1008.0 |
| 20260506203615 | 35 | 90 | 24.1 | 0.0 | 0.00 | 0.00 | 0.00 | 38 | 1008.0 |
| 20260506202614 | 35 | 90 | 24.1 | 0.0 | 0.00 | 0.00 | 0.00 | 38 | 1008.0 |
| 20260506201614 | 35 | 90 | 24.1 | 0.0 | 0.00 | 0.00 | 0.00 | 38 | 1008.0 |
| 20260506200613 | 35 | 90 | 24.1 | 0.0 | 0.00 | 0.00 | 0.00 | 38 | 1008.0 |
| 20260506195613 | 35 | 90 | 24.1 | 0.0 | 0.00 | 0.00 | 0.00 | 38 | 1008.0 |
| 20260506194612 | 35 | 90 | 24.1 | 0.0 | 0.00 | 0.00 | 0.00 | 39 | 1008.0 |
| 20260506193612 | 35 | 90 | 24.1 | 0.0 | 0.00 | 0.00 | 0.00 | 40 | 1008.0 |
| 20260506192611 | 35 | 90 | 24.1 | 0.0 | 0.00 | 0.00 | 0.00 | 40 | 1009.0 |
| 20260506191611 | 35 | 90 | 24.1 | 0.0 | 0.00 | 0.00 | 0.00 | 40 | 1009.0 |
| 20260506190610 | 35 | 90 | 24.1 | 0.0 | 0.00 | 0.00 | 0.00 | 40 | 1009.0 |
| 20260506185610 | 35 | 90 | 25.7 | 0.0 | 0.00 | 0.00 | 0.00 | 40 | 1009.0 |
| 20260506184609 | 35 | 90 | 25.7 | 0.0 | 0.00 | 0.00 | 0.00 | 41 | 1010.0 |
| 20260506183608 | 35 | 90 | 25.7 | 0.0 | 0.00 | 0.00 | 0.00 | 42 | 1010.0 |
| 20260506182608 | 34 | 90 | 25.7 | 0.0 | 0.00 | 0.00 | 0.00 | 44 | 1011.0 |
| 20260506181608 | 34 | 90 | 25.7 | 0.0 | 0.00 | 0.00 | 0.00 | 44 | 1011.0 |
| 20260506180606 | 34 | 70 | 17.7 | 0.0 | 0.00 | 0.00 | 0.00 | 45 | 1011.0 |
| 20260506175605 | 33 | 70 | 17.7 | 0.0 | 0.00 | 0.00 | 0.00 | 46 | 1010.0 |